Time;durP1;ratioP1;P1;durP2;ratioP2;P2;SDS_P1;SDS_P2;PMS_P1;PMS_P2;Temp;Humidity;BMP_temperature;BMP_pressure;BME280_temperature;BME280_humidity;BME280_pressure;Samples;Min_cycle;Max_cycle;Signal;HPM_P1;HPM_P2
2022/03/30 00:01:27;;;;;;;25.00;19.10;;;13.80;53.60;;;;;;5115257;28;20210;-59
2022/03/30 00:03:53;;;;;;;27.98;19.85;;;13.70;53.90;;;;;;5120693;27;20230;-59
2022/03/30 00:06:20;;;;;;;25.65;18.10;;;13.70;54.10;;;;;;5135533;27;20203;-59
2022/03/30 00:08:47;;;;;;;23.50;18.40;;;13.70;53.70;;;;;;5135706;27;20254;-58
2022/03/30 00:11:14;;;;;;;23.58;17.42;;;13.70;53.70;;;;;;5134474;27;20285;-59
2022/03/30 00:13:42;;;;;;;24.15;18.33;;;13.80;53.50;;;;;;5135676;27;20287;-59
2022/03/30 00:16:11;;;;;;;22.80;18.58;;;13.90;53.30;;;;;;5135461;27;20202;-59
2022/03/30 00:18:38;;;;;;;26.80;18.77;;;13.90;53.70;;;;;;5135383;27;20675;-59
2022/03/30 00:21:06;;;;;;;24.48;18.60;;;13.90;53.50;;;;;;5135345;27;20206;-59
2022/03/30 00:23:33;;;;;;;24.58;19.60;;;13.80;54.00;;;;;;5135391;27;20199;-58
2022/03/30 00:26:00;;;;;;;24.80;19.55;;;13.60;54.50;;;;;;5134044;27;20221;-59
2022/03/30 00:28:28;;;;;;;28.23;19.10;;;13.50;54.80;;;;;;5135090;27;20234;-59
2022/03/30 00:30:57;;;;;;;26.85;19.58;;;13.50;54.90;;;;;;5135140;27;20231;-58
2022/03/30 00:33:24;;;;;;;27.13;19.60;;;13.40;54.60;;;;;;5134681;27;20203;-59
2022/03/30 00:35:51;;;;;;;27.40;19.80;;;13.40;55.10;;;;;;5135216;27;20202;-59
2022/03/30 00:38:19;;;;;;;25.33;18.83;;;13.40;54.80;;;;;;5134934;27;20199;-59
2022/03/30 00:40:46;;;;;;;28.40;20.08;;;13.60;54.40;;;;;;5133786;27;20203;-59
2022/03/30 00:43:13;;;;;;;22.52;18.55;;;13.70;54.30;;;;;;5134806;27;20209;-59
2022/03/30 00:45:40;;;;;;;23.17;18.48;;;13.80;54.10;;;;;;5134976;27;20206;-59
2022/03/30 00:48:09;;;;;;;25.45;19.38;;;13.90;53.90;;;;;;5134774;27;20198;-59
2022/03/30 00:50:37;;;;;;;23.35;19.35;;;13.90;54.00;;;;;;5134832;27;20630;-59
2022/03/30 00:53:04;;;;;;;24.40;19.23;;;13.80;54.30;;;;;;5134838;27;20209;-58
2022/03/30 00:55:31;;;;;;;25.38;19.73;;;13.70;54.60;;;;;;5133472;27;20199;-59
2022/03/30 00:57:58;;;;;;;24.83;18.80;;;13.80;54.10;;;;;;5134760;27;20198;-58
2022/03/30 01:00:26;;;;;;;27.60;19.80;;;13.70;54.50;;;;;;5134784;27;20301;-59
2022/03/30 01:02:54;;;;;;;26.20;19.30;;;13.60;54.70;;;;;;5134622;27;20214;-59
2022/03/30 01:05:22;;;;;;;21.08;18.55;;;13.70;54.70;;;;;;5134524;27;20267;-59
2022/03/30 01:07:49;;;;;;;32.17;20.60;;;13.80;54.60;;;;;;5134634;27;20199;-59
2022/03/30 01:10:18;;;;;;;25.25;18.55;;;13.80;55.00;;;;;;5133223;27;20226;-59
2022/03/30 01:12:45;;;;;;;22.38;18.92;;;13.50;56.60;;;;;;5134400;27;20198;-58
2022/03/30 01:15:14;;;;;;;24.02;18.92;;;13.30;55.80;;;;;;5134320;27;20198;-59
2022/03/30 01:17:41;;;;;;;21.80;18.55;;;13.40;56.20;;;;;;5134435;27;20202;-59
2022/03/30 01:20:10;;;;;;;23.55;18.00;;;13.50;55.60;;;;;;5134336;27;20230;-59
2022/03/30 01:22:39;;;;;;;25.38;18.55;;;13.60;55.30;;;;;;5134338;27;20234;-58
2022/03/30 01:25:07;;;;;;;27.65;20.23;;;13.70;55.40;;;;;;5134428;27;20208;-59
2022/03/30 01:27:34;;;;;;;21.25;18.15;;;13.70;54.80;;;;;;5132870;27;20207;-59
2022/03/30 01:32:55;;;;;;;23.65;19.58;;;13.90;54.80;;;;;;5134251;27;20205;-59
2022/03/30 01:35:22;;;;;;;23.45;19.50;;;13.70;55.00;;;;;;5134301;27;20573;-59
2022/03/30 01:37:51;;;;;;;24.42;19.10;;;13.70;54.90;;;;;;5134081;27;20195;-59
2022/03/30 01:40:18;;;;;;;21.70;18.77;;;13.70;55.20;;;;;;5132441;27;20241;-59
2022/03/30 01:42:44;;;;;;;26.60;19.58;;;13.70;55.20;;;;;;5133990;27;20195;-59
2022/03/30 01:45:15;;;;;;;24.63;19.23;;;13.50;55.50;;;;;;5133461;27;20293;-59
2022/03/30 01:47:42;;;;;;;20.75;18.33;;;13.50;55.20;;;;;;5133970;27;20198;-58
2022/03/30 01:50:11;;;;;;;24.67;18.95;;;13.60;55.60;;;;;;5133708;27;20233;-59
2022/03/30 01:52:37;;;;;;;22.48;18.50;;;13.80;55.40;;;;;;5133906;27;20237;-59
2022/03/30 01:55:06;;;;;;;26.05;19.42;;;13.90;55.50;;;;;;5133783;27;20541;-59
2022/03/30 01:57:33;;;;;;;24.70;19.90;;;13.60;55.70;;;;;;5132528;27;20198;-59
2022/03/30 02:00:03;;;;;;;24.52;18.52;;;13.40;56.00;;;;;;5133889;27;20641;-58
2022/03/30 02:02:30;;;;;;;26.98;19.55;;;13.40;56.20;;;;;;5133812;27;20669;-59
2022/03/30 02:04:57;;;;;;;22.13;17.63;;;13.40;56.50;;;;;;5133809;27;20206;-59
2022/03/30 02:07:24;;;;;;;27.67;19.70;;;13.40;56.60;;;;;;5133586;27;20202;-59
2022/03/30 02:09:51;;;;;;;24.02;19.42;;;13.60;56.00;;;;;;5133658;27;20311;-59
2022/03/30 02:12:20;;;;;;;22.95;18.88;;;13.60;56.30;;;;;;5132378;27;20202;-59
2022/03/30 02:14:49;;;;;;;21.30;18.33;;;13.70;55.80;;;;;;5133682;27;20195;-59
2022/03/30 02:17:16;;;;;;;22.98;19.05;;;13.70;56.50;;;;;;5133777;27;20207;-58
2022/03/30 02:19:43;;;;;;;21.15;18.55;;;13.70;57.10;;;;;;5133536;27;20205;-59
2022/03/30 02:22:10;;;;;;;24.52;17.33;;;13.50;57.20;;;;;;5133730;27;20217;-59
2022/03/30 02:24:37;;;;;;;23.90;18.48;;;13.50;56.80;;;;;;5133564;27;20203;-58
2022/03/30 02:27:04;;;;;;;22.98;18.48;;;13.60;56.60;;;;;;5132358;27;20199;-59
2022/03/30 02:29:34;;;;;;;21.65;17.33;;;13.60;56.40;;;;;;5132603;27;20239;-59
2022/03/30 02:32:01;;;;;;;21.95;17.38;;;13.60;56.40;;;;;;5133541;27;20209;-59
2022/03/30 02:34:28;;;;;;;21.48;16.83;;;13.70;56.00;;;;;;5133288;27;20209;-59
2022/03/30 02:36:54;;;;;;;24.60;17.38;;;13.80;55.50;;;;;;5133515;27;20198;-59
2022/03/30 02:39:21;;;;;;;23.45;18.10;;;13.80;55.40;;;;;;5133502;27;20195;-59
2022/03/30 02:41:48;;;;;;;20.13;17.77;;;13.80;56.30;;;;;;5132199;27;20253;-59
2022/03/30 02:44:15;;;;;;;24.20;18.60;;;13.70;55.90;;;;;;5133343;27;20764;-59
2022/03/30 02:46:43;;;;;;;25.45;18.45;;;13.70;55.80;;;;;;5133459;27;20432;-59
2022/03/30 02:49:10;;;;;;;24.13;19.25;;;13.70;55.60;;;;;;5132940;27;20684;-59
2022/03/30 02:51:38;;;;;;;21.38;19.13;;;13.70;55.80;;;;;;5133430;27;20207;-59
2022/03/30 02:54:05;;;;;;;21.83;18.50;;;13.70;56.00;;;;;;5133345;27;20349;-59
2022/03/30 02:56:32;;;;;;;23.88;18.75;;;13.70;56.00;;;;;;5132942;27;20253;-59
2022/03/30 02:58:59;;;;;;;22.77;18.10;;;13.70;55.60;;;;;;5137071;27;20244;-59
2022/03/30 03:01:26;;;;;;;21.83;18.02;;;13.70;55.70;;;;;;5137012;27;20209;-59
2022/03/30 03:03:54;;;;;;;22.65;17.40;;;13.70;55.50;;;;;;5136785;27;20211;-58
2022/03/30 03:06:21;;;;;;;22.50;18.10;;;13.70;56.50;;;;;;5136948;27;20289;-59
2022/03/30 03:08:48;;;;;;;20.80;18.25;;;13.60;56.30;;;;;;5136927;27;20289;-59
2022/03/30 03:11:15;;;;;;;29.27;20.13;;;13.40;56.80;;;;;;5135440;27;20230;-59
2022/03/30 03:13:41;;;;;;;23.77;18.25;;;13.20;56.60;;;;;;5136805;27;20612;-59
2022/03/30 03:16:08;;;;;;;21.02;16.95;;;13.30;56.80;;;;;;5136764;27;20293;-58
2022/03/30 03:18:36;;;;;;;20.73;17.35;;;13.10;57.90;;;;;;5136720;27;20202;-59
2022/03/30 03:21:04;;;;;;;22.45;19.05;;;13.10;57.70;;;;;;5136538;27;20203;-59
2022/03/30 03:23:31;;;;;;;20.90;18.15;;;13.10;57.40;;;;;;5136600;27;20199;-59
2022/03/30 03:25:58;;;;;;;28.35;19.30;;;13.10;57.50;;;;;;5135274;27;20203;-59
2022/03/30 03:28:25;;;;;;;27.77;19.52;;;13.10;57.50;;;;;;5136648;27;20756;-59
2022/03/30 03:30:52;;;;;;;22.42;18.55;;;13.10;57.50;;;;;;5136137;27;20345;-58
2022/03/30 03:33:19;;;;;;;24.92;19.85;;;12.80;59.20;;;;;;5136419;27;20213;-58
2022/03/30 03:35:47;;;;;;;24.05;20.35;;;12.30;60.60;;;;;;5136195;27;20209;-58
2022/03/30 03:38:15;;;;;;;24.73;19.73;;;12.00;60.80;;;;;;5136292;27;20293;-58
2022/03/30 03:40:42;;;;;;;23.25;17.58;;;12.10;61.00;;;;;;5134893;27;20203;-59
2022/03/30 03:43:10;;;;;;;28.52;19.90;;;12.00;62.20;;;;;;5136232;27;20306;-58
2022/03/30 03:45:37;;;;;;;25.83;20.27;;;12.00;62.10;;;;;;5136104;27;20202;-59
2022/03/30 03:48:04;;;;;;;28.42;19.42;;;11.80;62.00;;;;;;5136058;27;20252;-58
2022/03/30 03:50:31;;;;;;;27.85;20.95;;;11.70;62.40;;;;;;5136026;27;20226;-59
2022/03/30 03:52:57;;;;;;;29.38;20.00;;;11.70;62.50;;;;;;5136071;27;20294;-58
2022/03/30 03:55:26;;;;;;;25.05;19.02;;;11.60;62.50;;;;;;5134695;27;20285;-58
2022/03/30 03:57:53;;;;;;;26.15;19.10;;;11.60;62.60;;;;;;5135887;27;20267;-58
2022/03/30 04:00:20;;;;;;;24.38;20.05;;;11.60;63.10;;;;;;5135925;27;20644;-57
2022/03/30 04:02:47;;;;;;;27.95;18.92;;;11.50;63.80;;;;;;5135877;27;20235;-57
2022/03/30 04:05:15;;;;;;;28.67;20.42;;;11.50;64.10;;;;;;5135757;27;20619;-58
2022/03/30 04:07:42;;;;;;;26.73;21.40;;;11.60;63.80;;;;;;5135803;27;20559;-57
2022/03/30 04:10:10;;;;;;;26.88;20.55;;;11.50;64.40;;;;;;5135314;27;20222;-57
2022/03/30 04:12:39;;;;;;;23.65;19.38;;;11.50;65.20;;;;;;5134546;27;20294;-56
2022/03/30 04:15:07;;;;;;;29.27;22.08;;;11.40;66.50;;;;;;5135588;27;20202;-56
2022/03/30 04:17:34;;;;;;;26.60;20.73;;;11.40;66.20;;;;;;5135525;27;20209;-59
2022/03/30 04:20:01;;;;;;;25.30;19.33;;;11.40;66.50;;;;;;5135438;27;20293;-58
2022/03/30 04:22:28;;;;;;;28.13;21.52;;;11.40;66.30;;;;;;5135472;27;20195;-58
2022/03/30 04:24:55;;;;;;;24.65;21.40;;;11.40;66.40;;;;;;5135274;27;20217;-57
2022/03/30 04:27:22;;;;;;;24.40;18.15;;;11.30;67.00;;;;;;5134025;27;20226;-57
2022/03/30 04:29:50;;;;;;;21.27;16.73;;;11.10;67.20;;;;;;5134997;27;20237;-57
2022/03/30 04:32:17;;;;;;;27.42;17.63;;;11.10;67.40;;;;;;5135244;27;20228;-56
2022/03/30 04:34:44;;;;;;;24.80;18.30;;;11.00;68.00;;;;;;5135074;27;20208;-56
2022/03/30 04:37:11;;;;;;;24.60;18.70;;;11.00;68.90;;;;;;5135136;27;20199;-57
2022/03/30 04:39:38;;;;;;;24.10;18.70;;;10.90;69.40;;;;;;5134948;27;20213;-56
2022/03/30 04:42:05;;;;;;;22.05;18.42;;;10.80;70.50;;;;;;5133689;27;20318;-56
2022/03/30 04:44:32;;;;;;;23.88;17.77;;;10.70;71.40;;;;;;5135230;27;20203;-57
2022/03/30 04:47:01;;;;;;;26.40;19.98;;;10.50;72.50;;;;;;5134874;27;20203;-56
2022/03/30 04:49:28;;;;;;;22.38;19.88;;;10.30;74.00;;;;;;5134672;27;20293;-56
2022/03/30 04:51:54;;;;;;;30.38;19.83;;;10.10;75.30;;;;;;5134759;27;20321;-56
2022/03/30 04:54:21;;;;;;;25.73;18.33;;;10.00;76.90;;;;;;5134709;27;20242;-56
2022/03/30 04:56:51;;;;;;;24.33;20.70;;;9.90;76.70;;;;;;5133578;27;20203;-56
2022/03/30 04:59:19;;;;;;;24.50;17.60;;;9.90;76.70;;;;;;5134541;27;20202;-56
2022/03/30 05:01:45;;;;;;;26.63;20.60;;;9.90;78.90;;;;;;5134701;27;20259;-56
2022/03/30 05:04:14;;;;;;;27.20;24.33;;;9.70;78.50;;;;;;5134419;27;20230;-56
2022/03/30 05:06:40;;;;;;;27.50;24.52;;;9.60;79.50;;;;;;5134551;27;20205;-56
2022/03/30 05:09:07;;;;;;;29.95;25.48;;;9.40;80.70;;;;;;5134397;27;20760;-56
2022/03/30 05:11:34;;;;;;;28.60;25.05;;;9.30;82.40;;;;;;5133116;27;20317;-57
2022/03/30 05:14:01;;;;;;;28.90;26.08;;;9.20;83.40;;;;;;5134461;27;20691;-56
2022/03/30 05:16:28;;;;;;;33.65;28.33;;;9.10;84.00;;;;;;5134466;27;20534;-56
2022/03/30 05:18:55;;;;;;;34.42;26.50;;;9.00;84.40;;;;;;5134343;27;20206;-56
2022/03/30 05:21:23;;;;;;;32.88;26.42;;;9.00;85.20;;;;;;5133161;27;20245;-56
2022/03/30 05:23:50;;;;;;;28.08;25.25;;;9.10;85.20;;;;;;5134188;27;20198;-57
2022/03/30 05:26:17;;;;;;;28.58;25.00;;;9.20;85.50;;;;;;5132891;27;20203;-57
2022/03/30 05:28:44;;;;;;;31.92;26.65;;;9.10;85.20;;;;;;5134257;27;20577;-57
2022/03/30 05:31:11;;;;;;;35.60;25.52;;;9.10;85.50;;;;;;5133966;27;20591;-57
2022/03/30 05:33:38;;;;;;;37.28;28.05;;;9.10;85.20;;;;;;5133972;27;20740;-58
2022/03/30 05:36:05;;;;;;;29.83;25.67;;;9.00;85.80;;;;;;5133697;27;20284;-57
2022/03/30 05:38:34;;;;;;;29.83;23.80;;;9.00;86.10;;;;;;5133922;27;20207;-57
2022/03/30 05:41:02;;;;;;;28.85;24.52;;;9.00;86.90;;;;;;5132664;27;20202;-58
2022/03/30 05:43:29;;;;;;;32.47;24.52;;;9.00;87.00;;;;;;5133861;27;20222;-58
2022/03/30 05:45:56;;;;;;;34.22;23.63;;;9.00;87.60;;;;;;5133862;27;20209;-57
2022/03/30 05:48:24;;;;;;;31.90;22.80;;;8.90;87.80;;;;;;5133658;27;20209;-58
2022/03/30 05:50:52;;;;;;;32.38;23.40;;;8.90;87.20;;;;;;5133581;27;20215;-57
2022/03/30 05:53:19;;;;;;;32.08;23.17;;;9.00;87.20;;;;;;5133939;27;20218;-57
2022/03/30 05:55:47;;;;;;;30.42;23.77;;;8.90;87.70;;;;;;5132377;27;20203;-58
2022/03/30 05:58:17;;;;;;;34.83;22.02;;;8.90;87.90;;;;;;5133530;27;20298;-57
2022/03/30 06:00:44;;;;;;;32.80;26.60;;;8.90;88.90;;;;;;5133633;27;20649;-58
2022/03/30 06:03:11;;;;;;;28.17;22.20;;;8.90;88.40;;;;;;5133659;27;20297;-58
2022/03/30 06:05:38;;;;;;;30.20;21.30;;;8.90;88.40;;;;;;5133542;27;20248;-58
2022/03/30 06:08:06;;;;;;;33.67;22.10;;;8.90;88.30;;;;;;5133605;27;20217;-58
2022/03/30 06:10:33;;;;;;;25.88;21.63;;;9.00;88.30;;;;;;5132559;27;20569;-59
2022/03/30 06:13:02;;;;;;;35.05;24.90;;;9.10;88.20;;;;;;5133641;27;20199;-58
2022/03/30 06:15:30;;;;;;;30.52;20.95;;;9.10;88.20;;;;;;5133540;27;20293;-58
2022/03/30 06:17:57;;;;;;;32.13;21.25;;;9.00;87.70;;;;;;5133536;27;20198;-59
2022/03/30 06:20:24;;;;;;;29.20;20.52;;;8.90;88.90;;;;;;5133414;27;20202;-58
2022/03/30 06:22:52;;;;;;;27.25;21.35;;;8.80;88.80;;;;;;5133409;27;20661;-57
2022/03/30 06:25:22;;;;;;;28.77;20.73;;;8.80;89.10;;;;;;5132285;27;20714;-58
2022/03/30 06:27:49;;;;;;;26.33;20.25;;;8.90;89.00;;;;;;5133539;27;20199;-57
2022/03/30 06:30:18;;;;;;;31.00;21.02;;;9.10;88.90;;;;;;5133161;27;20271;-58
2022/03/30 06:32:49;;;;;;;26.25;21.45;;;9.30;88.00;;;;;;5136426;27;20688;-58
2022/03/30 06:35:17;;;;;;;29.27;20.33;;;9.40;87.80;;;;;;5137450;27;20318;-58
2022/03/30 06:37:44;;;;;;;29.67;22.10;;;9.50;87.30;;;;;;5137400;27;20205;-58
2022/03/30 06:40:12;;;;;;;26.58;21.23;;;9.60;87.10;;;;;;5137308;27;20285;-58
2022/03/30 06:42:39;;;;;;;25.52;20.92;;;9.60;86.60;;;;;;5136396;27;20229;-58
2022/03/30 06:45:08;;;;;;;23.10;20.38;;;9.70;87.00;;;;;;5137199;27;20713;-58
2022/03/30 06:47:36;;;;;;;22.25;19.42;;;9.70;87.10;;;;;;5137258;27;20254;-58
2022/03/30 06:50:05;;;;;;;25.77;20.70;;;9.70;86.20;;;;;;5137162;27;20637;-58
2022/03/30 06:52:34;;;;;;;23.20;20.80;;;9.70;86.20;;;;;;5136964;27;20230;-58
2022/03/30 06:55:01;;;;;;;28.15;20.42;;;9.60;87.10;;;;;;5137308;27;20289;-58
2022/03/30 06:57:28;;;;;;;24.92;22.25;;;9.50;87.10;;;;;;5135785;27;20237;-58
2022/03/30 06:59:54;;;;;;;24.52;21.77;;;9.50;87.60;;;;;;5137092;27;20203;-58
2022/03/30 07:02:21;;;;;;;30.55;22.15;;;9.60;87.20;;;;;;5136949;27;20205;-58
2022/03/30 07:04:49;;;;;;;28.00;21.98;;;9.70;88.00;;;;;;5136858;27;20380;-58
2022/03/30 07:10:18;;;;;;;31.67;21.45;;;9.80;86.80;;;;;;5136884;27;20202;-58
2022/03/30 07:12:47;;;;;;;28.88;20.33;;;9.90;85.70;;;;;;5136741;27;20342;-58
2022/03/30 07:15:16;;;;;;;38.33;25.30;;;10.00;85.20;;;;;;5136804;27;20203;-58
2022/03/30 07:17:47;;;;;;;38.70;24.25;;;10.00;85.70;;;;;;5136555;27;20225;-58
2022/03/30 07:20:17;;;;;;;29.98;21.27;;;10.00;84.90;;;;;;5136364;27;20289;-58
2022/03/30 07:22:45;;;;;;;37.33;23.38;;;10.00;84.80;;;;;;5136711;27;20207;-58
2022/03/30 07:25:13;;;;;;;41.17;24.63;;;10.00;85.50;;;;;;5136580;27;20203;-58
2022/03/30 07:27:41;;;;;;;36.55;23.95;;;10.00;85.30;;;;;;5135815;27;20198;-58
2022/03/30 07:30:09;;;;;;;38.33;23.27;;;9.90;85.70;;;;;;5136348;27;20230;-58
2022/03/30 07:32:38;;;;;;;29.88;21.17;;;9.90;84.90;;;;;;5136416;27;20241;-58
2022/03/30 07:35:05;;;;;;;32.88;21.67;;;10.00;84.80;;;;;;5136079;27;20604;-58
2022/03/30 07:37:34;;;;;;;29.88;20.48;;;10.00;84.40;;;;;;5136337;27;20278;-58
2022/03/30 07:40:02;;;;;;;34.40;22.58;;;10.10;84.20;;;;;;5136180;27;20205;-58
2022/03/30 07:42:29;;;;;;;31.90;22.83;;;10.10;85.40;;;;;;5134482;27;20230;-58
2022/03/30 07:44:55;;;;;;;34.45;22.50;;;9.90;87.20;;;;;;5135486;27;20254;-58
2022/03/30 07:47:22;;;;;;;35.28;21.75;;;9.80;87.00;;;;;;5135999;27;20207;-58
2022/03/30 07:49:50;;;;;;;27.60;22.75;;;9.70;87.10;;;;;;5135899;27;20671;-58
2022/03/30 07:52:17;;;;;;;33.22;22.00;;;9.70;86.40;;;;;;5135913;27;20700;-58
2022/03/30 07:54:45;;;;;;;29.90;21.92;;;9.60;86.80;;;;;;5135882;27;20260;-58
2022/03/30 07:57:12;;;;;;;37.88;21.52;;;9.50;87.50;;;;;;5134501;27;20201;-58
2022/03/30 07:59:39;;;;;;;29.00;20.70;;;9.60;87.80;;;;;;5135787;27;20298;-58
2022/03/30 08:02:05;;;;;;;28.90;20.60;;;9.50;88.50;;;;;;5135630;27;20234;-58
2022/03/30 08:04:32;;;;;;;31.85;21.75;;;9.50;88.90;;;;;;5135759;27;20203;-58
2022/03/30 08:06:59;;;;;;;27.90;19.27;;;9.50;88.30;;;;;;5135638;27;20213;-58
2022/03/30 08:09:26;;;;;;;29.65;20.65;;;9.60;87.90;;;;;;5135701;27;20289;-58
2022/03/30 08:11:54;;;;;;;28.15;19.92;;;9.60;87.90;;;;;;5134245;27;20579;-58
2022/03/30 08:14:21;;;;;;;27.55;21.15;;;9.50;88.50;;;;;;5135536;27;20297;-58
2022/03/30 08:16:48;;;;;;;29.63;20.55;;;9.30;89.10;;;;;;5135412;27;20205;-58
2022/03/30 08:19:15;;;;;;;29.90;20.70;;;9.30;89.60;;;;;;5135489;27;20213;-59
2022/03/30 08:24:27;;;;;;;26.33;17.52;;;9.30;88.10;;;;;;5135508;27;20214;-58
2022/03/30 08:26:55;;;;;;;28.70;19.08;;;9.10;87.90;;;;;;5134107;27;20562;-58
2022/03/30 08:29:22;;;;;;;27.20;17.05;;;9.10;88.80;;;;;;5135091;27;20229;-58
2022/03/30 08:31:49;;;;;;;26.65;17.48;;;9.00;89.70;;;;;;5135074;27;20258;-58
2022/03/30 08:34:18;;;;;;;29.55;18.23;;;9.10;89.30;;;;;;5135124;27;20661;-59
2022/03/30 08:36:45;;;;;;;27.98;18.20;;;9.10;90.10;;;;;;5135168;27;20205;-58
2022/03/30 08:39:12;;;;;;;24.38;19.02;;;9.10;89.10;;;;;;5135112;27;20293;-59
2022/03/30 08:41:43;;;;;;;32.42;18.70;;;9.00;88.80;;;;;;5133636;27;20223;-58
2022/03/30 08:44:13;;;;;;;29.02;19.10;;;9.10;89.60;;;;;;5134931;27;20286;-58
2022/03/30 08:46:40;;;;;;;27.98;16.88;;;9.10;89.40;;;;;;5135032;27;20198;-58
2022/03/30 08:49:07;;;;;;;31.13;16.83;;;9.10;89.60;;;;;;5134855;27;20671;-58
2022/03/30 08:51:38;;;;;;;24.67;17.15;;;9.10;89.50;;;;;;5134792;27;20573;-58
2022/03/30 08:54:05;;;;;;;23.65;18.98;;;9.10;90.20;;;;;;5134834;27;20202;-58
2022/03/30 08:56:32;;;;;;;29.73;16.95;;;9.10;89.60;;;;;;5133344;27;20212;-59
2022/03/30 08:59:02;;;;;;;27.25;17.17;;;9.10;89.70;;;;;;5134842;27;20238;-58
2022/03/30 09:01:33;;;;;;;20.75;16.23;;;9.10;89.40;;;;;;5134658;27;20198;-58
2022/03/30 09:04:02;;;;;;;25.60;17.15;;;9.00;89.80;;;;;;5134525;27;20676;-58
2022/03/30 09:06:31;;;;;;;24.60;16.98;;;9.00;88.90;;;;;;5134538;27;20204;-58
2022/03/30 09:08:58;;;;;;;27.60;17.40;;;9.00;90.20;;;;;;5134513;27;20232;-58
2022/03/30 09:11:27;;;;;;;27.58;17.30;;;9.10;90.40;;;;;;5133155;27;20210;-58
2022/03/30 09:14:01;;;;;;;29.92;16.90;;;9.10;89.80;;;;;;5134590;27;20282;-58
2022/03/30 09:16:42;;;;;;;24.33;16.90;;;9.20;89.70;;;;;;5134412;27;20214;-59
2022/03/30 09:19:11;;;;;;;26.15;16.35;;;9.20;89.80;;;;;;5134311;27;20215;-59
2022/03/30 09:21:42;;;;;;;28.88;16.10;;;9.30;89.40;;;;;;5134239;27;20293;-59
2022/03/30 09:24:09;;;;;;;22.50;16.60;;;9.30;89.20;;;;;;5134204;27;20293;-58
2022/03/30 09:26:36;;;;;;;27.27;17.20;;;9.20;88.10;;;;;;5133041;27;20205;-59
2022/03/30 09:29:04;;;;;;;27.35;15.88;;;9.30;89.70;;;;;;5134064;27;20202;-58
2022/03/30 09:31:32;;;;;;;30.10;18.35;;;9.20;88.20;;;;;;5134041;27;20199;-59
2022/03/30 09:34:02;;;;;;;22.65;16.30;;;9.30;88.50;;;;;;5133856;27;20238;-58
2022/03/30 09:36:31;;;;;;;22.95;16.00;;;9.40;88.60;;;;;;5133914;27;20281;-59
2022/03/30 09:38:58;;;;;;;24.42;15.05;;;9.50;88.00;;;;;;5133971;27;20531;-59
2022/03/30 09:41:25;;;;;;;22.67;15.60;;;9.60;88.00;;;;;;5132414;27;20233;-59
2022/03/30 09:44:02;;;;;;;35.60;17.70;;;9.80;87.40;;;;;;5134020;27;20233;-59
2022/03/30 09:46:30;;;;;;;32.45;17.08;;;9.90;86.40;;;;;;5133815;27;20206;-58
2022/03/30 09:48:57;;;;;;;22.65;17.20;;;9.80;85.80;;;;;;5133891;27;20203;-58
2022/03/30 09:51:27;;;;;;;26.95;18.40;;;9.80;86.30;;;;;;5133639;27;20199;-58
2022/03/30 09:53:54;;;;;;;26.08;16.90;;;9.80;86.80;;;;;;5133720;27;20195;-58
2022/03/30 09:56:23;;;;;;;20.42;15.90;;;9.80;86.70;;;;;;5132516;27;20293;-58
2022/03/30 09:58:59;;;;;;;27.33;17.55;;;9.60;88.30;;;;;;5133825;27;20198;-58
2022/03/30 10:01:29;;;;;;;27.55;18.13;;;9.70;88.00;;;;;;5133986;27;20561;-59
2022/03/30 10:03:59;;;;;;;25.23;17.40;;;9.70;88.00;;;;;;5133769;27;20330;-59
2022/03/30 10:06:29;;;;;;;27.08;16.45;;;9.70;88.30;;;;;;5134403;27;20266;-58
2022/03/30 10:08:57;;;;;;;24.80;15.07;;;9.70;89.80;;;;;;5137986;27;20305;-58
2022/03/30 10:11:26;;;;;;;21.85;16.98;;;9.70;88.40;;;;;;5136342;27;20255;-59
2022/03/30 10:13:54;;;;;;;27.08;17.95;;;9.80;88.50;;;;;;5137664;27;20519;-59
2022/03/30 10:16:22;;;;;;;26.50;16.98;;;10.00;88.70;;;;;;5137898;27;20199;-59
2022/03/30 10:18:51;;;;;;;25.70;17.15;;;10.30;88.50;;;;;;5137738;27;20205;-59
2022/03/30 10:21:24;;;;;;;27.35;15.98;;;10.40;88.30;;;;;;5137595;27;20206;-59
2022/03/30 10:24:18;;;;;;;26.20;16.77;;;10.60;87.80;;;;;;5137625;27;20202;-59
2022/03/30 10:26:56;;;;;;;22.45;15.63;;;10.70;86.70;;;;;;5136367;27;20198;-59
2022/03/30 10:29:25;;;;;;;25.75;16.77;;;10.70;86.60;;;;;;5137449;27;20237;-59
2022/03/30 10:32:13;;;;;;;20.88;15.93;;;10.60;86.70;;;;;;5137354;27;20202;-59
2022/03/30 10:34:42;;;;;;;19.38;15.63;;;10.40;86.50;;;;;;5137503;27;20230;-58
2022/03/30 10:37:11;;;;;;;21.65;16.70;;;10.40;88.30;;;;;;5137336;27;20562;-59
2022/03/30 10:40:07;;;;;;;23.48;16.75;;;10.60;87.70;;;;;;5137317;27;20222;-59
2022/03/30 10:43:05;;;;;;;22.60;16.60;;;10.60;86.70;;;;;;5135859;27;20228;-59
2022/03/30 10:45:38;;;;;;;24.08;17.77;;;10.70;86.90;;;;;;5073770;28;20254;-59
2022/03/30 10:48:08;;;;;;;21.63;16.02;;;10.90;86.90;;;;;;5125922;27;20203;-59
2022/03/30 10:50:36;;;;;;;29.17;17.38;;;11.00;86.00;;;;;;5136949;27;20657;-59
2022/03/30 10:53:03;;;;;;;21.48;16.05;;;10.90;85.60;;;;;;5136930;27;20234;-58
2022/03/30 10:55:36;;;;;;;24.77;17.02;;;10.70;86.10;;;;;;5135626;27;20198;-59
2022/03/30 10:58:05;;;;;;;17.70;15.80;;;10.80;85.90;;;;;;5137015;27;20255;-59
2022/03/30 11:00:36;;;;;;;21.75;16.75;;;11.00;86.00;;;;;;5136902;27;20728;-59
2022/03/30 11:03:14;;;;;;;20.38;15.90;;;11.10;85.30;;;;;;5136844;27;20277;-60
2022/03/30 11:05:45;;;;;;;18.70;15.82;;;11.30;84.80;;;;;;5136570;27;20195;-59
2022/03/30 11:08:55;;;;;;;20.65;16.30;;;11.60;84.40;;;;;;5136768;27;20760;-59
2022/03/30 11:11:26;;;;;;;21.38;17.48;;;11.70;83.30;;;;;;5119750;27;20567;-59
2022/03/30 11:14:28;;;;;;;19.70;16.38;;;11.60;82.90;;;;;;5136579;27;20237;-59
2022/03/30 11:16:56;;;;;;;19.02;17.30;;;11.60;82.90;;;;;;5136639;27;20293;-59
2022/03/30 11:19:29;;;;;;;24.27;18.15;;;11.60;82.50;;;;;;5135191;27;20260;-59
2022/03/30 11:22:11;;;;;;;20.13;15.55;;;11.50;83.40;;;;;;5136409;27;20654;-59
2022/03/30 11:24:41;;;;;;;17.52;15.80;;;11.70;83.20;;;;;;5134197;27;20613;-59
2022/03/30 11:27:22;;;;;;;19.48;17.38;;;11.60;82.00;;;;;;5135026;27;20210;-60
2022/03/30 11:30:13;;;;;;;18.95;15.85;;;11.70;81.90;;;;;;5136258;27;20234;-59
2022/03/30 11:32:59;;;;;;;18.10;13.90;;;11.70;80.50;;;;;;5136226;27;20223;-58
2022/03/30 11:35:32;;;;;;;17.67;14.65;;;11.40;81.80;;;;;;5136160;27;20247;-58
2022/03/30 11:38:21;;;;;;;17.58;13.93;;;11.30;81.00;;;;;;5136396;27;20205;-59
2022/03/30 11:40:49;;;;;;;17.90;13.85;;;11.30;81.80;;;;;;5134854;27;20227;-59
2022/03/30 11:43:19;;;;;;;15.65;13.30;;;11.40;82.00;;;;;;5136035;27;20203;-59
2022/03/30 11:45:47;;;;;;;24.52;13.82;;;11.70;81.80;;;;;;5136076;27;20202;-59
2022/03/30 11:48:14;;;;;;;23.27;14.90;;;11.90;82.60;;;;;;5136154;27;20290;-61
2022/03/30 11:50:42;;;;;;;21.52;14.88;;;12.20;81.90;;;;;;5135862;27;20293;-59
2022/03/30 11:53:11;;;;;;;21.38;14.70;;;12.20;80.40;;;;;;5135867;27;20587;-59
2022/03/30 11:55:49;;;;;;;25.10;15.20;;;12.20;78.70;;;;;;5134337;27;20271;-59
2022/03/30 11:58:26;;;;;;;19.55;13.90;;;12.20;79.50;;;;;;5135870;27;20205;-58
2022/03/30 12:00:53;;;;;;;20.98;14.00;;;12.00;80.60;;;;;;5135773;27;20293;-59
2022/03/30 12:03:21;;;;;;;19.65;13.38;;;12.20;80.70;;;;;;5135641;27;20203;-59
2022/03/30 12:05:51;;;;;;;24.13;16.52;;;12.40;80.20;;;;;;5135554;27;20636;-59
2022/03/30 12:08:18;;;;;;;24.00;14.40;;;12.40;79.80;;;;;;5135584;27;20199;-59
2022/03/30 12:10:47;;;;;;;27.17;16.08;;;12.60;79.30;;;;;;5134708;27;20592;-59
2022/03/30 12:13:20;;;;;;;23.58;15.45;;;12.50;77.70;;;;;;5135550;27;20638;-59
2022/03/30 12:15:59;;;;;;;24.52;16.63;;;12.50;78.20;;;;;;5135521;27;20297;-59
2022/03/30 12:18:26;;;;;;;27.65;17.90;;;12.40;76.80;;;;;;5135434;27;20198;-59
2022/03/30 12:20:53;;;;;;;24.98;16.45;;;12.40;76.50;;;;;;5135209;27;20239;-58
2022/03/30 12:23:20;;;;;;;23.90;16.90;;;12.40;76.60;;;;;;5135372;27;20213;-58
2022/03/30 12:25:48;;;;;;;24.67;17.35;;;12.30;76.40;;;;;;5134003;27;20214;-58
2022/03/30 12:28:21;;;;;;;24.25;15.82;;;12.10;77.00;;;;;;5135091;27;20564;-58
2022/03/30 12:30:49;;;;;;;28.73;17.83;;;12.10;77.40;;;;;;5134654;27;20230;-61
2022/03/30 12:33:17;;;;;;;30.10;18.30;;;12.20;77.50;;;;;;5134839;27;20233;-58
2022/03/30 12:35:44;;;;;;;24.85;16.30;;;12.10;77.60;;;;;;5134930;27;20206;-58
2022/03/30 12:38:12;;;;;;;23.50;16.80;;;12.20;77.50;;;;;;5135044;27;20285;-59
2022/03/30 12:40:42;;;;;;;25.27;16.83;;;12.20;77.70;;;;;;5133640;27;20238;-59
2022/03/30 12:43:10;;;;;;;20.60;16.33;;;12.20;77.70;;;;;;5135061;27;20198;-59
2022/03/30 12:45:46;;;;;;;24.80;17.52;;;12.30;77.80;;;;;;5134973;27;20298;-61
2022/03/30 12:48:14;;;;;;;20.88;14.70;;;12.30;77.90;;;;;;5134863;27;20198;-59